createdAt,value
2023-06-18T00:00:44.631Z,13.70
2023-06-18T00:08:56.956Z,14.00
2023-06-18T00:12:37.887Z,13.90
2023-06-18T00:35:12.537Z,15.80
2023-06-18T00:39:04.477Z,14.00
2023-06-18T00:58:16.688Z,13.90
2023-06-18T01:02:06.045Z,15.40
2023-06-18T01:05:38.646Z,14.60
2023-06-18T01:09:17.578Z,14.40
2023-06-18T01:36:12.399Z,14.40
2023-06-18T01:40:20.159Z,13.80
2023-06-18T01:44:18.435Z,14.30
2023-06-18T01:48:07.674Z,13.60
2023-06-18T01:55:28.033Z,13.70
2023-06-18T02:15:06.910Z,13.90
2023-06-18T02:18:45.748Z,12.30
2023-06-18T02:22:35.718Z,13.10
2023-06-18T02:34:31.279Z,12.40
2023-06-18T02:38:20.421Z,13.40
2023-06-18T02:42:10.247Z,12.60
2023-06-18T02:57:32.967Z,11.50
2023-06-18T03:01:29.161Z,12.90
2023-06-18T03:17:06.315Z,11.40
2023-06-18T03:20:23.707Z,11.80
2023-06-18T03:24:12.692Z,13.90
2023-06-18T03:28:02.508Z,13.00
2023-06-18T03:31:47.755Z,11.80
2023-06-18T03:35:36.353Z,10.70
2023-06-18T03:54:55.280Z,12.10
2023-06-18T03:58:36.934Z,11.00
2023-06-18T04:02:19.561Z,10.70
2023-06-18T04:05:55.364Z,11.70
2023-06-18T04:09:45.355Z,12.20
2023-06-18T04:21:38.693Z,11.30
2023-06-18T04:25:27.748Z,11.50
2023-06-18T04:51:50.752Z,9.20
2023-06-18T04:55:39.778Z,9.90
2023-06-18T04:59:24.209Z,9.60
2023-06-18T05:10:55.386Z,7.40
2023-06-18T05:14:44.357Z,7.10
2023-06-18T05:18:26.776Z,8.50
2023-06-18T05:34:00.716Z,9.50
2023-06-18T05:37:49.740Z,9.60
2023-06-18T05:41:39.633Z,8.60
2023-06-18T06:04:49.302Z,10.00
2023-06-18T06:08:38.372Z,8.90
2023-06-18T06:27:45.974Z,7.70
2023-06-18T06:31:35.399Z,7.30
2023-06-18T06:35:24.325Z,9.20
2023-06-18T06:53:54.648Z,7.40
2023-06-18T06:57:16.281Z,6.50
2023-06-18T07:00:55.325Z,6.60
2023-06-18T07:04:27.384Z,6.80
2023-06-18T07:08:07.541Z,6.90
2023-06-18T07:31:18.281Z,8.90
2023-06-18T07:34:48.831Z,8.00
2023-06-18T07:38:38.304Z,8.10
2023-06-18T07:54:24.679Z,8.50
2023-06-18T07:58:06.622Z,7.60
2023-06-18T08:01:55.697Z,6.30
2023-06-18T08:05:46.772Z,6.40
2023-06-18T08:28:50.791Z,6.30
2023-06-18T08:32:40.163Z,5.80
2023-06-18T08:36:30.729Z,6.80
2023-06-18T08:40:21.431Z,5.90
2023-06-18T09:10:32.160Z,5.50
2023-06-18T09:14:23.890Z,5.80
2023-06-18T09:18:13.598Z,6.00
2023-06-18T09:22:18.132Z,6.30
2023-06-18T09:25:41.620Z,5.80
2023-06-18T09:29:36.284Z,5.60
2023-06-18T09:49:13.320Z,7.00
2023-06-18T09:52:42.387Z,6.50
2023-06-18T09:56:31.553Z,5.60
2023-06-18T10:00:20.542Z,7.70
2023-06-18T10:03:59.759Z,6.00
2023-06-18T10:23:18.729Z,6.60
2023-06-18T10:27:07.903Z,6.70
2023-06-18T10:30:57.177Z,6.10
2023-06-18T10:34:47.414Z,6.00
2023-06-18T10:50:42.157Z,5.80
2023-06-18T10:54:37.265Z,7.00
2023-06-18T10:58:26.847Z,6.00
2023-06-18T11:18:13.056Z,4.50
2023-06-18T11:21:44.424Z,5.20
2023-06-18T11:25:16.519Z,3.70
2023-06-18T11:29:05.762Z,3.60
2023-06-18T11:32:49.237Z,4.00
2023-06-18T11:36:20.154Z,4.30
2023-06-18T11:39:50.467Z,4.70
2023-06-18T11:43:33.815Z,4.60
2023-06-18T11:46:06.949Z,4.90
2023-06-18T11:48:38.135Z,5.30
2023-06-18T11:51:21.088Z,5.00
2023-06-18T11:53:55.010Z,4.60
2023-06-18T11:56:30.744Z,5.40
2023-06-18T11:59:04.754Z,4.30
2023-06-18T12:05:07.127Z,4.20
2023-06-18T12:07:43.567Z,4.80
2023-06-18T12:10:16.575Z,6.30
2023-06-18T12:13:21.126Z,6.50
2023-06-18T12:17:04.470Z,5.90
2023-06-18T12:19:42.045Z,5.50
2023-06-18T12:22:14.607Z,5.00
2023-06-18T12:25:00.817Z,6.00
2023-06-18T12:27:43.106Z,5.00
2023-06-18T12:30:14.408Z,5.30
2023-06-18T12:33:05.687Z,6.10
2023-06-18T12:36:03.440Z,7.20
2023-06-18T12:38:49.327Z,5.40
2023-06-18T12:41:28.250Z,6.00
2023-06-18T12:44:00.631Z,7.10
2023-06-18T12:46:32.818Z,5.70
2023-06-18T12:49:03.730Z,6.30
2023-06-18T12:52:27.613Z,5.20
2023-06-18T12:55:24.616Z,6.40
2023-06-18T12:57:59.488Z,5.90
2023-06-18T13:00:36.316Z,6.20
2023-06-18T13:03:22.101Z,6.20
2023-06-18T13:05:50.837Z,6.20
2023-06-18T13:08:22.401Z,6.20
2023-06-18T13:11:02.231Z,6.10
2023-06-18T13:13:35.939Z,5.90
2023-06-18T13:16:04.649Z,5.70
2023-06-18T13:18:35.775Z,6.30
2023-06-18T13:21:40.095Z,6.40
2023-06-18T13:24:11.376Z,6.50
2023-06-18T13:26:40.642Z,6.80
2023-06-18T13:29:12.602Z,5.90
2023-06-18T13:31:41.286Z,6.80
2023-06-18T13:34:09.868Z,6.60
2023-06-18T13:36:38.349Z,7.70
2023-06-18T13:39:06.955Z,6.20
2023-06-18T13:42:05.724Z,6.10
2023-06-18T13:44:38.033Z,7.50
2023-06-18T13:47:56.280Z,6.70
2023-06-18T13:50:39.860Z,6.70
2023-06-18T13:53:18.810Z,7.10
2023-06-18T13:55:57.729Z,6.80
2023-06-18T13:58:28.567Z,7.20
2023-06-18T14:00:58.072Z,5.80
2023-06-18T14:03:28.939Z,6.60
2023-06-18T14:06:01.073Z,6.80
2023-06-18T14:08:32.460Z,6.70
2023-06-18T14:11:01.006Z,6.40
2023-06-18T14:13:34.956Z,5.50
2023-06-18T14:16:08.164Z,5.70
2023-06-18T14:18:43.757Z,5.60
2023-06-18T14:21:26.777Z,5.60
2023-06-18T14:23:55.587Z,4.70
2023-06-18T14:26:25.378Z,5.30
2023-06-18T14:28:54.070Z,4.70
2023-06-18T14:31:53.983Z,4.60
2023-06-18T14:34:22.567Z,5.40
2023-06-18T14:36:56.655Z,4.90
2023-06-18T14:39:39.192Z,4.20
2023-06-18T14:42:17.088Z,4.60
2023-06-18T14:45:01.545Z,4.50
2023-06-18T14:47:44.384Z,4.00
2023-06-18T14:50:43.050Z,4.20
2023-06-18T14:53:18.903Z,4.00
2023-06-18T14:55:47.586Z,4.90
2023-06-18T14:58:21.469Z,6.00
2023-06-18T15:00:50.513Z,5.10
2023-06-18T15:03:19.055Z,4.70
2023-06-18T15:05:47.863Z,5.40
2023-06-18T15:08:16.239Z,4.70
2023-06-18T15:10:47.388Z,5.20
2023-06-18T15:13:19.244Z,5.00
2023-06-18T15:15:51.307Z,5.00
2023-06-18T15:18:20.379Z,4.90
2023-06-18T15:20:51.959Z,5.80
2023-06-18T15:23:23.419Z,5.80
2023-06-18T15:25:51.785Z,5.30
2023-06-18T15:29:02.397Z,5.50
2023-06-18T15:31:34.004Z,7.50
2023-06-18T15:34:28.087Z,5.40
2023-06-18T15:37:01.588Z,5.20
2023-06-18T15:39:34.161Z,6.70
2023-06-18T15:42:02.757Z,5.60
2023-06-18T15:44:31.183Z,8.30
2023-06-18T15:47:01.853Z,6.70
2023-06-18T15:49:30.233Z,5.20
2023-06-18T15:52:01.490Z,7.00
2023-06-18T15:54:35.593Z,5.80
2023-06-18T15:57:10.115Z,5.80
2023-06-18T15:59:58.685Z,5.80
2023-06-18T16:02:41.522Z,5.60
2023-06-18T16:05:24.538Z,5.40
2023-06-18T16:08:02.823Z,5.00
2023-06-18T16:10:31.199Z,7.70
2023-06-18T16:13:14.426Z,6.30
2023-06-18T16:15:46.284Z,6.60
2023-06-18T16:18:19.368Z,6.60
2023-06-18T16:20:51.130Z,6.80
2023-06-18T16:23:32.658Z,6.20
2023-06-18T16:26:03.459Z,6.70
2023-06-18T16:28:35.376Z,6.80
2023-06-18T16:31:12.400Z,5.80
2023-06-18T16:33:44.253Z,7.20
2023-06-18T16:36:15.710Z,7.00
2023-06-18T16:38:46.862Z,7.30
2023-06-18T16:41:41.747Z,6.10
2023-06-18T16:44:26.407Z,6.90
2023-06-18T16:47:30.250Z,6.30
2023-06-18T16:50:01.674Z,5.80
2023-06-18T16:52:32.648Z,5.50
2023-06-18T16:55:07.666Z,5.60
2023-06-18T16:57:37.948Z,6.00
2023-06-18T17:00:07.778Z,5.90
2023-06-18T17:02:48.464Z,6.40
2023-06-18T17:05:17.036Z,8.10
2023-06-18T17:07:45.200Z,10.70
2023-06-18T17:10:13.271Z,8.10
2023-06-18T17:12:41.867Z,11.50
2023-06-18T17:15:11.209Z,7.30
2023-06-18T17:17:39.568Z,6.40
2023-06-18T17:20:09.586Z,11.00
2023-06-18T17:22:38.363Z,7.70
2023-06-18T17:25:10.411Z,6.90
2023-06-18T17:27:39.101Z,6.00
2023-06-18T17:30:25.500Z,8.00
2023-06-18T17:32:54.156Z,5.30
2023-06-18T17:35:22.991Z,5.70
2023-06-18T17:37:57.202Z,6.70
2023-06-18T17:40:38.364Z,6.50
2023-06-18T17:43:10.947Z,5.70
2023-06-18T17:45:47.512Z,7.00
2023-06-18T17:48:19.064Z,5.30
2023-06-18T17:50:48.057Z,5.80
2023-06-18T17:53:30.777Z,5.60
2023-06-18T17:56:02.541Z,5.90
2023-06-18T17:58:40.895Z,5.30
2023-06-18T18:01:36.298Z,6.30
2023-06-18T18:04:07.873Z,6.60
2023-06-18T18:06:39.873Z,5.50
2023-06-18T18:09:10.707Z,5.80
2023-06-18T18:11:47.692Z,6.00
2023-06-18T18:14:20.876Z,7.80
2023-06-18T18:17:01.149Z,8.10
2023-06-18T18:19:37.410Z,6.00
2023-06-18T18:22:08.866Z,6.40
2023-06-18T18:24:40.296Z,7.10
2023-06-18T18:27:10.443Z,11.80
2023-06-18T18:29:38.608Z,6.70
2023-06-18T18:32:10.467Z,6.10
2023-06-18T18:34:41.426Z,6.40
2023-06-18T18:37:12.550Z,6.60
2023-06-18T18:39:42.774Z,7.40
2023-06-18T18:42:11.864Z,14.80
2023-06-18T18:44:48.904Z,15.30
2023-06-18T18:47:17.636Z,21.40
2023-06-18T18:49:51.385Z,20.50
2023-06-18T18:52:26.114Z,18.00
2023-06-18T18:54:55.403Z,20.90
2023-06-18T18:57:24.052Z,21.20
2023-06-18T18:59:52.539Z,9.80
2023-06-18T19:02:21.107Z,9.60
2023-06-18T19:04:49.903Z,6.10
2023-06-18T19:07:31.694Z,7.20
2023-06-18T19:10:10.529Z,7.40
2023-06-18T19:12:39.404Z,8.30
2023-06-18T19:15:08.826Z,7.50
2023-06-18T19:17:42.270Z,7.00
2023-06-18T19:20:19.695Z,8.80
2023-06-18T19:22:50.533Z,8.20
2023-06-18T19:25:21.917Z,7.10
2023-06-18T19:27:56.193Z,9.30
2023-06-18T19:30:27.442Z,15.30
2023-06-18T19:32:58.497Z,10.20
2023-06-18T19:35:27.388Z,10.60
2023-06-18T19:38:04.662Z,9.10
2023-06-18T19:40:35.200Z,9.20
2023-06-18T19:43:06.440Z,8.30
2023-06-18T19:45:34.919Z,9.00
2023-06-18T19:48:03.158Z,11.20
2023-06-18T19:50:32.197Z,9.60
2023-06-18T19:53:06.605Z,15.10
2023-06-18T19:55:42.771Z,17.50
2023-06-18T19:58:16.897Z,16.30
2023-06-18T20:00:48.559Z,17.20
2023-06-18T20:03:26.013Z,16.90
2023-06-18T20:06:07.312Z,16.50
2023-06-18T20:08:44.396Z,17.20
2023-06-18T20:11:18.101Z,15.90
2023-06-18T20:14:18.116Z,16.10
2023-06-18T20:16:51.718Z,17.40
2023-06-18T20:19:20.098Z,18.10
2023-06-18T20:21:56.871Z,15.70
2023-06-18T20:24:39.695Z,17.00
2023-06-18T20:27:56.107Z,17.50
2023-06-18T20:30:27.848Z,16.20
2023-06-18T20:33:12.717Z,15.50
2023-06-18T20:35:50.002Z,17.30
2023-06-18T20:38:21.876Z,24.10
2023-06-18T20:40:53.364Z,30.60
2023-06-18T20:43:31.420Z,22.50
2023-06-18T20:46:19.899Z,25.50
2023-06-18T20:49:57.776Z,24.50
2023-06-18T20:53:39.519Z,23.60
2023-06-18T20:56:41.437Z,25.80
2023-06-18T20:59:53.540Z,24.10
2023-06-18T21:03:18.106Z,19.00
2023-06-18T21:07:02.399Z,21.50
2023-06-18T21:10:52.324Z,19.60
2023-06-18T21:18:08.712Z,19.60
2023-06-18T21:21:38.638Z,19.60
2023-06-18T21:25:28.747Z,19.00
2023-06-18T21:37:04.749Z,19.10
2023-06-18T21:40:36.583Z,22.10
2023-06-18T21:44:08.071Z,19.60
2023-06-18T21:47:15.462Z,19.70
2023-06-18T21:51:06.682Z,22.30
2023-06-18T21:54:17.761Z,20.10
2023-06-18T22:19:28.621Z,26.20
2023-06-18T22:23:17.570Z,25.20
2023-06-18T22:27:07.345Z,24.80
2023-06-18T22:30:43.725Z,22.20
2023-06-18T22:51:56.974Z,21.30
2023-06-18T22:55:35.495Z,20.90
2023-06-18T22:59:17.193Z,18.10
2023-06-18T23:03:06.805Z,18.10
2023-06-18T23:11:04.175Z,17.30
2023-06-18T23:14:53.233Z,16.10
2023-06-18T23:18:42.356Z,15.00
2023-06-18T23:26:26.292Z,15.10
2023-06-18T23:30:15.298Z,14.30
2023-06-18T23:33:44.582Z,12.50
2023-06-18T23:37:34.656Z,13.70
2023-06-18T23:59:34.400Z,12.10
